ALA weather

Almaty Airport
Almaty, Almaty Region, Kazakhstan

Public forecast

Using degrees Celsius for public forecast. Weather courtesy of forecast.io.

METAR (pilot weather report)

Retrieved 2019/04/19 14:30 UTC (5 minutes ago):

UAAA 191430Z 16002MPS 9999 BKN050CB OVC100 15/08 Q1015 R88/65D NOSIG

TAF (pilot weather forecast)

Retrieved 2019/04/19 12:18 UTC (2 hours ago):

TAF TAF UAAA 191100Z 1912/2012 32005MPS 5000 -SHRA BR BKN030CB BKN100 TX18/2008Z TN10/2001Z TEMPO 1912/1918 24012G17MPS 2000 TSRA BKN011CB OVC100 TEMPO 1918/1924 1500 SHRA BR BKN005 OVC020CB TEMPO 2006/2012 24007G12MPS 2000 SHRA BR BKN011CB OVC100